sensor_id;sensor_type;location;lat;lon;timestamp;P1;durP1;ratioP1;P2;durP2;ratioP2
36457;SDS011;22480;50.546;12.292;2023-05-29T00:00:19;7.38;;;4.90;;
36457;SDS011;22480;50.546;12.292;2023-05-29T00:02:46;7.40;;;4.70;;
36457;SDS011;22480;50.546;12.292;2023-05-29T00:05:12;6.50;;;4.05;;
36457;SDS011;22480;50.546;12.292;2023-05-29T00:07:39;6.18;;;4.18;;
36457;SDS011;22480;50.546;12.292;2023-05-29T00:10:05;7.38;;;4.93;;
36457;SDS011;22480;50.546;12.292;2023-05-29T00:12:32;9.38;;;4.97;;
36457;SDS011;22480;50.546;12.292;2023-05-29T00:14:58;8.30;;;5.15;;
36457;SDS011;22480;50.546;12.292;2023-05-29T00:17:24;8.40;;;5.07;;
36457;SDS011;22480;50.546;12.292;2023-05-29T00:19:50;6.18;;;4.40;;
36457;SDS011;22480;50.546;12.292;2023-05-29T00:22:16;6.32;;;4.25;;
36457;SDS011;22480;50.546;12.292;2023-05-29T00:24:41;7.13;;;5.07;;
36457;SDS011;22480;50.546;12.292;2023-05-29T00:27:07;6.75;;;4.70;;
36457;SDS011;22480;50.546;12.292;2023-05-29T00:29:34;9.20;;;4.55;;
36457;SDS011;22480;50.546;12.292;2023-05-29T00:32:01;8.18;;;4.20;;
36457;SDS011;22480;50.546;12.292;2023-05-29T00:34:27;6.93;;;4.60;;
36457;SDS011;22480;50.546;12.292;2023-05-29T00:36:53;8.15;;;5.50;;
36457;SDS011;22480;50.546;12.292;2023-05-29T00:39:21;9.98;;;5.50;;
36457;SDS011;22480;50.546;12.292;2023-05-29T00:41:47;7.10;;;4.88;;
36457;SDS011;22480;50.546;12.292;2023-05-29T00:44:19;8.38;;;5.57;;
36457;SDS011;22480;50.546;12.292;2023-05-29T00:46:46;10.43;;;5.15;;
36457;SDS011;22480;50.546;12.292;2023-05-29T00:49:17;7.07;;;4.93;;
36457;SDS011;22480;50.546;12.292;2023-05-29T00:51:44;7.07;;;5.10;;
36457;SDS011;22480;50.546;12.292;2023-05-29T00:54:11;6.65;;;4.60;;
36457;SDS011;22480;50.546;12.292;2023-05-29T00:56:39;7.38;;;4.50;;
36457;SDS011;22480;50.546;12.292;2023-05-29T00:59:09;8.60;;;4.25;;
36457;SDS011;22480;50.546;12.292;2023-05-29T01:01:35;8.27;;;4.50;;
36457;SDS011;22480;50.546;12.292;2023-05-29T01:04:01;7.65;;;4.35;;
36457;SDS011;22480;50.546;12.292;2023-05-29T01:06:31;7.18;;;5.10;;
36457;SDS011;22480;50.546;12.292;2023-05-29T01:08:58;7.78;;;4.57;;
36457;SDS011;22480;50.546;12.292;2023-05-29T01:13:59;7.25;;;5.53;;
36457;SDS011;22480;50.546;12.292;2023-05-29T01:16:35;8.35;;;4.57;;
36457;SDS011;22480;50.546;12.292;2023-05-29T01:25:11;8.35;;;4.78;;
36457;SDS011;22480;50.546;12.292;2023-05-29T01:27:43;9.95;;;5.80;;
36457;SDS011;22480;50.546;12.292;2023-05-29T01:30:14;9.73;;;5.70;;
36457;SDS011;22480;50.546;12.292;2023-05-29T01:32:41;8.27;;;5.32;;
36457;SDS011;22480;50.546;12.292;2023-05-29T01:35:08;8.02;;;4.65;;
36457;SDS011;22480;50.546;12.292;2023-05-29T01:37:34;7.13;;;4.70;;
36457;SDS011;22480;50.546;12.292;2023-05-29T01:40:00;17.42;;;9.02;;
36457;SDS011;22480;50.546;12.292;2023-05-29T01:42:27;26.35;;;9.95;;
36457;SDS011;22480;50.546;12.292;2023-05-29T01:44:54;23.08;;;10.23;;
36457;SDS011;22480;50.546;12.292;2023-05-29T01:47:21;17.48;;;7.78;;
36457;SDS011;22480;50.546;12.292;2023-05-29T01:49:48;17.52;;;8.02;;
36457;SDS011;22480;50.546;12.292;2023-05-29T01:52:16;10.95;;;6.15;;
36457;SDS011;22480;50.546;12.292;2023-05-29T01:54:43;11.00;;;6.60;;
36457;SDS011;22480;50.546;12.292;2023-05-29T01:57:09;11.50;;;6.15;;
36457;SDS011;22480;50.546;12.292;2023-05-29T01:59:35;9.65;;;5.10;;
36457;SDS011;22480;50.546;12.292;2023-05-29T02:02:06;8.20;;;4.13;;
36457;SDS011;22480;50.546;12.292;2023-05-29T02:04:32;7.35;;;4.80;;
36457;SDS011;22480;50.546;12.292;2023-05-29T02:06:58;7.57;;;4.35;;
36457;SDS011;22480;50.546;12.292;2023-05-29T02:09:24;6.75;;;4.10;;
36457;SDS011;22480;50.546;12.292;2023-05-29T02:11:51;7.63;;;5.10;;
36457;SDS011;22480;50.546;12.292;2023-05-29T02:14:17;8.33;;;4.60;;
36457;SDS011;22480;50.546;12.292;2023-05-29T02:16:43;8.10;;;5.07;;
36457;SDS011;22480;50.546;12.292;2023-05-29T02:19:10;7.70;;;5.07;;
36457;SDS011;22480;50.546;12.292;2023-05-29T02:21:39;7.47;;;4.25;;
36457;SDS011;22480;50.546;12.292;2023-05-29T02:24:08;11.83;;;4.60;;
36457;SDS011;22480;50.546;12.292;2023-05-29T02:26:33;9.07;;;4.87;;
36457;SDS011;22480;50.546;12.292;2023-05-29T02:29:02;5.50;;;3.63;;
36457;SDS011;22480;50.546;12.292;2023-05-29T02:31:30;6.33;;;3.80;;
36457;SDS011;22480;50.546;12.292;2023-05-29T02:33:56;6.33;;;4.43;;
36457;SDS011;22480;50.546;12.292;2023-05-29T02:36:22;9.83;;;4.63;;
36457;SDS011;22480;50.546;12.292;2023-05-29T02:38:49;6.87;;;4.30;;
36457;SDS011;22480;50.546;12.292;2023-05-29T02:41:15;7.07;;;3.93;;
36457;SDS011;22480;50.546;12.292;2023-05-29T02:43:42;10.30;;;4.50;;
36457;SDS011;22480;50.546;12.292;2023-05-29T02:46:07;8.57;;;4.30;;
36457;SDS011;22480;50.546;12.292;2023-05-29T02:48:33;8.53;;;4.40;;
36457;SDS011;22480;50.546;12.292;2023-05-29T02:50:59;10.37;;;5.20;;
36457;SDS011;22480;50.546;12.292;2023-05-29T02:53:24;7.77;;;4.40;;
36457;SDS011;22480;50.546;12.292;2023-05-29T02:55:50;8.60;;;4.73;;
36457;SDS011;22480;50.546;12.292;2023-05-29T02:58:16;6.80;;;4.50;;
36457;SDS011;22480;50.546;12.292;2023-05-29T03:00:42;5.85;;;4.40;;
36457;SDS011;22480;50.546;12.292;2023-05-29T03:03:08;8.57;;;4.60;;
36457;SDS011;22480;50.546;12.292;2023-05-29T03:05:37;6.28;;;4.63;;
36457;SDS011;22480;50.546;12.292;2023-05-29T03:08:03;6.97;;;4.37;;
36457;SDS011;22480;50.546;12.292;2023-05-29T03:10:29;7.68;;;4.25;;
36457;SDS011;22480;50.546;12.292;2023-05-29T03:12:55;10.45;;;4.65;;
36457;SDS011;22480;50.546;12.292;2023-05-29T03:15:20;7.07;;;4.80;;
36457;SDS011;22480;50.546;12.292;2023-05-29T03:17:46;9.73;;;5.30;;
36457;SDS011;22480;50.546;12.292;2023-05-29T03:20:15;9.02;;;4.97;;
36457;SDS011;22480;50.546;12.292;2023-05-29T03:22:41;9.73;;;4.57;;
36457;SDS011;22480;50.546;12.292;2023-05-29T03:25:08;9.30;;;4.67;;
36457;SDS011;22480;50.546;12.292;2023-05-29T03:27:34;8.30;;;4.53;;
36457;SDS011;22480;50.546;12.292;2023-05-29T03:30:07;11.10;;;5.65;;
36457;SDS011;22480;50.546;12.292;2023-05-29T03:32:34;8.32;;;4.60;;
36457;SDS011;22480;50.546;12.292;2023-05-29T03:35:00;10.33;;;5.20;;
36457;SDS011;22480;50.546;12.292;2023-05-29T03:37:27;7.30;;;4.72;;
36457;SDS011;22480;50.546;12.292;2023-05-29T03:39:53;7.18;;;4.60;;
36457;SDS011;22480;50.546;12.292;2023-05-29T03:42:20;7.93;;;4.53;;
36457;SDS011;22480;50.546;12.292;2023-05-29T03:44:48;7.95;;;4.47;;
36457;SDS011;22480;50.546;12.292;2023-05-29T03:47:14;7.80;;;4.38;;
36457;SDS011;22480;50.546;12.292;2023-05-29T03:49:40;9.32;;;5.03;;
36457;SDS011;22480;50.546;12.292;2023-05-29T03:52:06;8.07;;;5.57;;
36457;SDS011;22480;50.546;12.292;2023-05-29T03:54:32;6.63;;;4.65;;
36457;SDS011;22480;50.546;12.292;2023-05-29T03:57:00;6.10;;;3.80;;
36457;SDS011;22480;50.546;12.292;2023-05-29T03:59:27;6.93;;;4.18;;
36457;SDS011;22480;50.546;12.292;2023-05-29T04:01:53;7.85;;;4.40;;
36457;SDS011;22480;50.546;12.292;2023-05-29T04:04:19;9.27;;;3.90;;
36457;SDS011;22480;50.546;12.292;2023-05-29T04:06:45;7.47;;;4.30;;
36457;SDS011;22480;50.546;12.292;2023-05-29T04:09:11;7.28;;;4.28;;
36457;SDS011;22480;50.546;12.292;2023-05-29T04:11:36;7.93;;;4.38;;
36457;SDS011;22480;50.546;12.292;2023-05-29T04:14:03;9.48;;;5.03;;
36457;SDS011;22480;50.546;12.292;2023-05-29T04:16:29;8.45;;;4.50;;
36457;SDS011;22480;50.546;12.292;2023-05-29T04:18:55;6.22;;;4.53;;
36457;SDS011;22480;50.546;12.292;2023-05-29T04:21:23;5.78;;;4.00;;
36457;SDS011;22480;50.546;12.292;2023-05-29T04:23:49;10.02;;;4.85;;
36457;SDS011;22480;50.546;12.292;2023-05-29T04:26:15;36.53;;;11.02;;
36457;SDS011;22480;50.546;12.292;2023-05-29T04:28:41;33.13;;;10.55;;
36457;SDS011;22480;50.546;12.292;2023-05-29T04:31:07;22.90;;;8.85;;
36457;SDS011;22480;50.546;12.292;2023-05-29T04:33:35;23.02;;;7.85;;
36457;SDS011;22480;50.546;12.292;2023-05-29T04:36:03;21.80;;;8.30;;
36457;SDS011;22480;50.546;12.292;2023-05-29T04:38:30;8.40;;;3.97;;
36457;SDS011;22480;50.546;12.292;2023-05-29T04:40:57;7.45;;;3.80;;
36457;SDS011;22480;50.546;12.292;2023-05-29T04:43:24;5.47;;;3.10;;
36457;SDS011;22480;50.546;12.292;2023-05-29T04:46:01;6.00;;;3.35;;
36457;SDS011;22480;50.546;12.292;2023-05-29T04:48:29;5.78;;;3.65;;
36457;SDS011;22480;50.546;12.292;2023-05-29T04:50:55;3.53;;;2.78;;
36457;SDS011;22480;50.546;12.292;2023-05-29T04:53:22;34.90;;;19.45;;
36457;SDS011;22480;50.546;12.292;2023-05-29T04:55:49;43.65;;;24.95;;
36457;SDS011;22480;50.546;12.292;2023-05-29T04:58:15;42.17;;;23.90;;
36457;SDS011;22480;50.546;12.292;2023-05-29T05:00:41;44.58;;;28.45;;
36457;SDS011;22480;50.546;12.292;2023-05-29T05:03:08;39.60;;;27.52;;
36457;SDS011;22480;50.546;12.292;2023-05-29T05:05:35;32.38;;;20.30;;
36457;SDS011;22480;50.546;12.292;2023-05-29T05:08:01;28.23;;;16.73;;
36457;SDS011;22480;50.546;12.292;2023-05-29T05:10:27;20.35;;;13.55;;
36457;SDS011;22480;50.546;12.292;2023-05-29T05:12:53;18.25;;;12.75;;
36457;SDS011;22480;50.546;12.292;2023-05-29T05:15:20;18.05;;;10.93;;
36457;SDS011;22480;50.546;12.292;2023-05-29T05:17:46;12.52;;;8.23;;
36457;SDS011;22480;50.546;12.292;2023-05-29T05:20:12;13.98;;;8.52;;
36457;SDS011;22480;50.546;12.292;2023-05-29T05:22:39;11.70;;;8.05;;
36457;SDS011;22480;50.546;12.292;2023-05-29T05:25:05;11.82;;;5.80;;
36457;SDS011;22480;50.546;12.292;2023-05-29T05:27:32;5.13;;;3.72;;
36457;SDS011;22480;50.546;12.292;2023-05-29T05:29:59;5.25;;;3.67;;
36457;SDS011;22480;50.546;12.292;2023-05-29T05:32:26;6.13;;;3.90;;
36457;SDS011;22480;50.546;12.292;2023-05-29T05:35:01;8.48;;;3.92;;
36457;SDS011;22480;50.546;12.292;2023-05-29T05:37:28;6.00;;;4.22;;
36457;SDS011;22480;50.546;12.292;2023-05-29T05:39:55;5.63;;;4.05;;
36457;SDS011;22480;50.546;12.292;2023-05-29T05:42:23;5.88;;;4.05;;
36457;SDS011;22480;50.546;12.292;2023-05-29T05:44:54;7.10;;;4.35;;
36457;SDS011;22480;50.546;12.292;2023-05-29T05:47:21;7.95;;;4.30;;
36457;SDS011;22480;50.546;12.292;2023-05-29T05:49:47;6.35;;;4.10;;
36457;SDS011;22480;50.546;12.292;2023-05-29T05:52:15;7.05;;;4.75;;
36457;SDS011;22480;50.546;12.292;2023-05-29T05:54:42;8.43;;;4.45;;
36457;SDS011;22480;50.546;12.292;2023-05-29T05:57:08;5.93;;;4.43;;
36457;SDS011;22480;50.546;12.292;2023-05-29T05:59:36;5.30;;;4.15;;
36457;SDS011;22480;50.546;12.292;2023-05-29T06:02:03;7.53;;;4.57;;
36457;SDS011;22480;50.546;12.292;2023-05-29T06:04:29;5.63;;;4.32;;
36457;SDS011;22480;50.546;12.292;2023-05-29T06:06:55;9.77;;;5.00;;
36457;SDS011;22480;50.546;12.292;2023-05-29T06:09:21;6.93;;;4.93;;
36457;SDS011;22480;50.546;12.292;2023-05-29T06:11:48;6.35;;;4.65;;
36457;SDS011;22480;50.546;12.292;2023-05-29T06:14:14;7.57;;;5.30;;
36457;SDS011;22480;50.546;12.292;2023-05-29T06:16:42;8.80;;;5.13;;
36457;SDS011;22480;50.546;12.292;2023-05-29T06:19:09;8.73;;;5.18;;
36457;SDS011;22480;50.546;12.292;2023-05-29T06:21:50;7.93;;;5.28;;
36457;SDS011;22480;50.546;12.292;2023-05-29T06:24:16;6.03;;;4.57;;
36457;SDS011;22480;50.546;12.292;2023-05-29T06:26:42;10.52;;;5.18;;
36457;SDS011;22480;50.546;12.292;2023-05-29T06:29:10;7.40;;;4.63;;
36457;SDS011;22480;50.546;12.292;2023-05-29T06:31:36;5.18;;;4.65;;
36457;SDS011;22480;50.546;12.292;2023-05-29T06:34:01;7.53;;;5.38;;
36457;SDS011;22480;50.546;12.292;2023-05-29T06:36:27;7.30;;;5.55;;
36457;SDS011;22480;50.546;12.292;2023-05-29T06:38:53;6.80;;;5.35;;
36457;SDS011;22480;50.546;12.292;2023-05-29T06:41:20;8.85;;;5.20;;
36457;SDS011;22480;50.546;12.292;2023-05-29T06:43:48;11.27;;;5.68;;
36457;SDS011;22480;50.546;12.292;2023-05-29T06:46:15;11.82;;;5.55;;
36457;SDS011;22480;50.546;12.292;2023-05-29T06:48:41;9.43;;;5.57;;
36457;SDS011;22480;50.546;12.292;2023-05-29T06:51:06;6.03;;;4.72;;
36457;SDS011;22480;50.546;12.292;2023-05-29T06:53:40;8.65;;;4.93;;
36457;SDS011;22480;50.546;12.292;2023-05-29T06:56:07;7.40;;;5.07;;
36457;SDS011;22480;50.546;12.292;2023-05-29T06:58:33;6.28;;;4.40;;
36457;SDS011;22480;50.546;12.292;2023-05-29T07:00:59;7.32;;;5.07;;
36457;SDS011;22480;50.546;12.292;2023-05-29T07:03:37;7.40;;;5.18;;
36457;SDS011;22480;50.546;12.292;2023-05-29T07:06:04;9.18;;;5.38;;
36457;SDS011;22480;50.546;12.292;2023-05-29T07:08:31;6.53;;;5.50;;
36457;SDS011;22480;50.546;12.292;2023-05-29T07:10:57;5.90;;;4.70;;
36457;SDS011;22480;50.546;12.292;2023-05-29T07:13:24;7.93;;;4.95;;
36457;SDS011;22480;50.546;12.292;2023-05-29T07:15:50;9.43;;;5.07;;
36457;SDS011;22480;50.546;12.292;2023-05-29T07:18:20;9.05;;;5.28;;
36457;SDS011;22480;50.546;12.292;2023-05-29T07:20:46;7.60;;;4.93;;
36457;SDS011;22480;50.546;12.292;2023-05-29T07:23:15;8.18;;;5.40;;
36457;SDS011;22480;50.546;12.292;2023-05-29T07:25:40;7.60;;;4.55;;
36457;SDS011;22480;50.546;12.292;2023-05-29T07:28:06;7.15;;;5.75;;
36457;SDS011;22480;50.546;12.292;2023-05-29T07:30:32;8.50;;;5.05;;
36457;SDS011;22480;50.546;12.292;2023-05-29T07:32:58;9.45;;;5.95;;
36457;SDS011;22480;50.546;12.292;2023-05-29T07:35:24;7.15;;;4.97;;
36457;SDS011;22480;50.546;12.292;2023-05-29T07:37:50;6.15;;;4.75;;
36457;SDS011;22480;50.546;12.292;2023-05-29T07:40:17;9.27;;;5.15;;
36457;SDS011;22480;50.546;12.292;2023-05-29T07:43:02;6.40;;;4.85;;
36457;SDS011;22480;50.546;12.292;2023-05-29T07:45:41;11.05;;;5.57;;
36457;SDS011;22480;50.546;12.292;2023-05-29T07:48:06;7.05;;;5.20;;
36457;SDS011;22480;50.546;12.292;2023-05-29T07:50:32;7.85;;;5.13;;
36457;SDS011;22480;50.546;12.292;2023-05-29T07:52:59;8.23;;;4.90;;
36457;SDS011;22480;50.546;12.292;2023-05-29T07:55:26;7.40;;;5.45;;
36457;SDS011;22480;50.546;12.292;2023-05-29T07:57:51;10.23;;;5.30;;
36457;SDS011;22480;50.546;12.292;2023-05-29T08:00:17;6.78;;;5.05;;
36457;SDS011;22480;50.546;12.292;2023-05-29T08:02:46;7.63;;;4.60;;
36457;SDS011;22480;50.546;12.292;2023-05-29T08:05:48;6.50;;;4.70;;
36457;SDS011;22480;50.546;12.292;2023-05-29T08:08:16;9.60;;;5.05;;
36457;SDS011;22480;50.546;12.292;2023-05-29T08:10:41;7.03;;;4.53;;
36457;SDS011;22480;50.546;12.292;2023-05-29T08:13:07;6.55;;;4.90;;
36457;SDS011;22480;50.546;12.292;2023-05-29T08:15:35;11.23;;;4.90;;
36457;SDS011;22480;50.546;12.292;2023-05-29T08:18:01;7.35;;;4.63;;
36457;SDS011;22480;50.546;12.292;2023-05-29T08:20:26;7.05;;;4.80;;
36457;SDS011;22480;50.546;12.292;2023-05-29T08:22:52;9.85;;;5.03;;
36457;SDS011;22480;50.546;12.292;2023-05-29T08:25:18;9.90;;;4.93;;
36457;SDS011;22480;50.546;12.292;2023-05-29T08:27:44;7.60;;;4.07;;
36457;SDS011;22480;50.546;12.292;2023-05-29T08:30:09;7.78;;;4.32;;
36457;SDS011;22480;50.546;12.292;2023-05-29T08:32:37;8.65;;;4.28;;
36457;SDS011;22480;50.546;12.292;2023-05-29T08:35:02;7.97;;;4.13;;
36457;SDS011;22480;50.546;12.292;2023-05-29T08:37:29;6.03;;;4.05;;
36457;SDS011;22480;50.546;12.292;2023-05-29T08:39:55;10.00;;;4.07;;
36457;SDS011;22480;50.546;12.292;2023-05-29T08:42:21;5.53;;;4.07;;
36457;SDS011;22480;50.546;12.292;2023-05-29T08:44:56;5.88;;;3.83;;
36457;SDS011;22480;50.546;12.292;2023-05-29T08:47:23;6.70;;;3.70;;
36457;SDS011;22480;50.546;12.292;2023-05-29T08:49:52;6.03;;;3.88;;
36457;SDS011;22480;50.546;12.292;2023-05-29T08:52:19;9.32;;;4.00;;
36457;SDS011;22480;50.546;12.292;2023-05-29T08:54:47;6.63;;;4.22;;
36457;SDS011;22480;50.546;12.292;2023-05-29T08:57:13;5.70;;;3.78;;
36457;SDS011;22480;50.546;12.292;2023-05-29T08:59:40;6.68;;;3.92;;
36457;SDS011;22480;50.546;12.292;2023-05-29T09:02:07;7.82;;;4.05;;
36457;SDS011;22480;50.546;12.292;2023-05-29T09:04:34;4.65;;;3.53;;
36457;SDS011;22480;50.546;12.292;2023-05-29T09:07:00;5.93;;;4.15;;
36457;SDS011;22480;50.546;12.292;2023-05-29T09:09:27;5.65;;;3.72;;
36457;SDS011;22480;50.546;12.292;2023-05-29T09:11:54;6.35;;;3.75;;
36457;SDS011;22480;50.546;12.292;2023-05-29T09:15:06;6.40;;;3.80;;
36457;SDS011;22480;50.546;12.292;2023-05-29T09:17:11;6.82;;;3.80;;
36457;SDS011;22480;50.546;12.292;2023-05-29T09:19:38;4.85;;;3.30;;
36457;SDS011;22480;50.546;12.292;2023-05-29T09:22:09;7.28;;;3.55;;
36457;SDS011;22480;50.546;12.292;2023-05-29T09:24:40;4.75;;;3.25;;
36457;SDS011;22480;50.546;12.292;2023-05-29T09:27:08;7.18;;;3.40;;
36457;SDS011;22480;50.546;12.292;2023-05-29T09:29:40;5.05;;;3.40;;
36457;SDS011;22480;50.546;12.292;2023-05-29T09:32:07;5.82;;;3.47;;
36457;SDS011;22480;50.546;12.292;2023-05-29T09:34:34;6.97;;;3.45;;
36457;SDS011;22480;50.546;12.292;2023-05-29T09:37:00;5.18;;;3.20;;
36457;SDS011;22480;50.546;12.292;2023-05-29T09:39:33;7.85;;;3.67;;
36457;SDS011;22480;50.546;12.292;2023-05-29T09:42:00;5.70;;;3.88;;
36457;SDS011;22480;50.546;12.292;2023-05-29T09:44:26;9.60;;;3.33;;
36457;SDS011;22480;50.546;12.292;2023-05-29T09:46:57;7.45;;;3.60;;
36457;SDS011;22480;50.546;12.292;2023-05-29T09:49:24;5.22;;;2.88;;
36457;SDS011;22480;50.546;12.292;2023-05-29T09:51:54;6.28;;;3.33;;
36457;SDS011;22480;50.546;12.292;2023-05-29T09:54:20;7.22;;;3.47;;
36457;SDS011;22480;50.546;12.292;2023-05-29T09:56:47;6.80;;;3.55;;
36457;SDS011;22480;50.546;12.292;2023-05-29T09:59:13;7.65;;;5.10;;
36457;SDS011;22480;50.546;12.292;2023-05-29T10:01:40;6.03;;;3.20;;
36457;SDS011;22480;50.546;12.292;2023-05-29T10:04:08;7.53;;;3.55;;
36457;SDS011;22480;50.546;12.292;2023-05-29T10:06:41;4.63;;;3.03;;
36457;SDS011;22480;50.546;12.292;2023-05-29T10:09:12;5.15;;;2.97;;
36457;SDS011;22480;50.546;12.292;2023-05-29T10:11:41;4.88;;;2.97;;
36457;SDS011;22480;50.546;12.292;2023-05-29T10:14:09;4.32;;;2.90;;
36457;SDS011;22480;50.546;12.292;2023-05-29T10:16:41;5.93;;;3.03;;
36457;SDS011;22480;50.546;12.292;2023-05-29T10:19:11;5.13;;;3.00;;
36457;SDS011;22480;50.546;12.292;2023-05-29T10:21:38;4.78;;;2.80;;
36457;SDS011;22480;50.546;12.292;2023-05-29T10:24:07;6.97;;;2.85;;
36457;SDS011;22480;50.546;12.292;2023-05-29T10:26:34;6.78;;;3.13;;
36457;SDS011;22480;50.546;12.292;2023-05-29T10:34:50;5.45;;;2.75;;
36457;SDS011;22480;50.546;12.292;2023-05-29T10:37:34;3.47;;;3.10;;
36457;SDS011;22480;50.546;12.292;2023-05-29T10:40:04;3.78;;;2.83;;
36457;SDS011;22480;50.546;12.292;2023-05-29T10:45:10;4.38;;;2.97;;
36457;SDS011;22480;50.546;12.292;2023-05-29T10:47:38;4.47;;;3.08;;
36457;SDS011;22480;50.546;12.292;2023-05-29T10:50:04;4.82;;;2.75;;
36457;SDS011;22480;50.546;12.292;2023-05-29T10:52:33;6.45;;;2.88;;
36457;SDS011;22480;50.546;12.292;2023-05-29T10:54:59;9.35;;;3.30;;
36457;SDS011;22480;50.546;12.292;2023-05-29T10:57:28;3.50;;;2.33;;
36457;SDS011;22480;50.546;12.292;2023-05-29T10:59:58;7.35;;;3.00;;
36457;SDS011;22480;50.546;12.292;2023-05-29T11:02:39;7.35;;;3.00;;
36457;SDS011;22480;50.546;12.292;2023-05-29T11:05:27;4.22;;;3.13;;
36457;SDS011;22480;50.546;12.292;2023-05-29T11:07:53;5.20;;;2.90;;
36457;SDS011;22480;50.546;12.292;2023-05-29T11:13:23;5.15;;;2.90;;
36457;SDS011;22480;50.546;12.292;2023-05-29T11:18:50;4.35;;;2.55;;
36457;SDS011;22480;50.546;12.292;2023-05-29T11:21:21;4.72;;;2.88;;
36457;SDS011;22480;50.546;12.292;2023-05-29T11:23:50;4.18;;;2.65;;
36457;SDS011;22480;50.546;12.292;2023-05-29T11:26:17;5.78;;;2.80;;
36457;SDS011;22480;50.546;12.292;2023-05-29T11:28:45;5.25;;;2.60;;
36457;SDS011;22480;50.546;12.292;2023-05-29T11:31:11;7.65;;;2.78;;
36457;SDS011;22480;50.546;12.292;2023-05-29T11:33:41;4.97;;;2.72;;
36457;SDS011;22480;50.546;12.292;2023-05-29T11:36:15;5.75;;;2.60;;
36457;SDS011;22480;50.546;12.292;2023-05-29T11:38:41;8.70;;;3.10;;
36457;SDS011;22480;50.546;12.292;2023-05-29T11:41:07;6.00;;;3.25;;
36457;SDS011;22480;50.546;12.292;2023-05-29T11:43:34;6.88;;;3.22;;
36457;SDS011;22480;50.546;12.292;2023-05-29T11:46:00;4.57;;;2.75;;
36457;SDS011;22480;50.546;12.292;2023-05-29T11:48:26;5.18;;;2.85;;
36457;SDS011;22480;50.546;12.292;2023-05-29T11:50:52;5.68;;;3.40;;
36457;SDS011;22480;50.546;12.292;2023-05-29T11:53:18;5.32;;;3.10;;
36457;SDS011;22480;50.546;12.292;2023-05-29T11:55:44;4.22;;;3.08;;
36457;SDS011;22480;50.546;12.292;2023-05-29T11:58:09;5.13;;;3.20;;
36457;SDS011;22480;50.546;12.292;2023-05-29T12:00:36;5.35;;;3.58;;
36457;SDS011;22480;50.546;12.292;2023-05-29T12:03:03;5.55;;;2.80;;
36457;SDS011;22480;50.546;12.292;2023-05-29T12:05:32;5.57;;;2.80;;
36457;SDS011;22480;50.546;12.292;2023-05-29T12:08:09;5.88;;;3.25;;
36457;SDS011;22480;50.546;12.292;2023-05-29T12:10:35;4.15;;;2.92;;
36457;SDS011;22480;50.546;12.292;2023-05-29T12:13:01;5.20;;;2.80;;
36457;SDS011;22480;50.546;12.292;2023-05-29T12:15:26;7.15;;;3.08;;
36457;SDS011;22480;50.546;12.292;2023-05-29T12:17:53;5.35;;;2.60;;
36457;SDS011;22480;50.546;12.292;2023-05-29T12:20:22;3.95;;;2.90;;
36457;SDS011;22480;50.546;12.292;2023-05-29T12:22:49;6.47;;;3.13;;
36457;SDS011;22480;50.546;12.292;2023-05-29T12:25:18;5.32;;;3.22;;
36457;SDS011;22480;50.546;12.292;2023-05-29T12:27:45;5.18;;;3.00;;
36457;SDS011;22480;50.546;12.292;2023-05-29T12:32:44;5.15;;;2.65;;
36457;SDS011;22480;50.546;12.292;2023-05-29T12:40:21;4.05;;;2.53;;
36457;SDS011;22480;50.546;12.292;2023-05-29T12:43:01;4.75;;;2.90;;
36457;SDS011;22480;50.546;12.292;2023-05-29T12:45:29;3.80;;;2.90;;
36457;SDS011;22480;50.546;12.292;2023-05-29T12:47:59;6.95;;;3.47;;
36457;SDS011;22480;50.546;12.292;2023-05-29T12:50:29;6.03;;;3.20;;
36457;SDS011;22480;50.546;12.292;2023-05-29T12:55:23;6.03;;;3.55;;
36457;SDS011;22480;50.546;12.292;2023-05-29T12:57:49;4.90;;;3.00;;
36457;SDS011;22480;50.546;12.292;2023-05-29T13:00:15;5.20;;;3.08;;
36457;SDS011;22480;50.546;12.292;2023-05-29T13:02:42;6.15;;;3.08;;
36457;SDS011;22480;50.546;12.292;2023-05-29T13:05:09;7.10;;;3.10;;
36457;SDS011;22480;50.546;12.292;2023-05-29T13:07:34;4.78;;;3.47;;
36457;SDS011;22480;50.546;12.292;2023-05-29T13:10:00;4.35;;;3.15;;
36457;SDS011;22480;50.546;12.292;2023-05-29T13:12:27;6.53;;;2.97;;
36457;SDS011;22480;50.546;12.292;2023-05-29T13:14:53;4.90;;;3.15;;
36457;SDS011;22480;50.546;12.292;2023-05-29T13:17:21;6.18;;;3.60;;
36457;SDS011;22480;50.546;12.292;2023-05-29T13:19:47;5.82;;;3.35;;
36457;SDS011;22480;50.546;12.292;2023-05-29T13:22:13;5.05;;;2.55;;
36457;SDS011;22480;50.546;12.292;2023-05-29T13:24:38;4.97;;;4.07;;
36457;SDS011;22480;50.546;12.292;2023-05-29T13:27:04;5.35;;;2.92;;
36457;SDS011;22480;50.546;12.292;2023-05-29T13:29:30;4.78;;;3.15;;
36457;SDS011;22480;50.546;12.292;2023-05-29T13:31:56;3.28;;;2.92;;
36457;SDS011;22480;50.546;12.292;2023-05-29T13:34:22;6.45;;;2.90;;
36457;SDS011;22480;50.546;12.292;2023-05-29T13:36:53;3.70;;;2.35;;
36457;SDS011;22480;50.546;12.292;2023-05-29T13:39:22;3.88;;;2.60;;
36457;SDS011;22480;50.546;12.292;2023-05-29T13:41:48;5.03;;;2.58;;
36457;SDS011;22480;50.546;12.292;2023-05-29T13:44:14;4.00;;;2.33;;
36457;SDS011;22480;50.546;12.292;2023-05-29T13:46:40;3.47;;;2.78;;
36457;SDS011;22480;50.546;12.292;2023-05-29T13:49:05;4.93;;;2.53;;
36457;SDS011;22480;50.546;12.292;2023-05-29T13:51:32;4.97;;;2.70;;
36457;SDS011;22480;50.546;12.292;2023-05-29T13:53:58;5.20;;;2.65;;
36457;SDS011;22480;50.546;12.292;2023-05-29T13:56:24;4.18;;;2.45;;
36457;SDS011;22480;50.546;12.292;2023-05-29T13:58:52;3.53;;;2.17;;
36457;SDS011;22480;50.546;12.292;2023-05-29T14:01:17;3.28;;;2.33;;
36457;SDS011;22480;50.546;12.292;2023-05-29T14:03:45;5.10;;;2.53;;
36457;SDS011;22480;50.546;12.292;2023-05-29T14:06:11;4.63;;;2.53;;
36457;SDS011;22480;50.546;12.292;2023-05-29T14:08:36;5.15;;;2.53;;
36457;SDS011;22480;50.546;12.292;2023-05-29T14:11:02;4.65;;;3.03;;
36457;SDS011;22480;50.546;12.292;2023-05-29T14:13:28;3.20;;;2.70;;
36457;SDS011;22480;50.546;12.292;2023-05-29T14:15:54;6.28;;;2.60;;
36457;SDS011;22480;50.546;12.292;2023-05-29T14:18:22;5.90;;;2.58;;
36457;SDS011;22480;50.546;12.292;2023-05-29T14:20:48;3.67;;;2.35;;
36457;SDS011;22480;50.546;12.292;2023-05-29T14:23:14;3.70;;;2.40;;
36457;SDS011;22480;50.546;12.292;2023-05-29T14:25:42;4.25;;;2.70;;
36457;SDS011;22480;50.546;12.292;2023-05-29T14:28:07;6.50;;;2.80;;
36457;SDS011;22480;50.546;12.292;2023-05-29T14:30:33;5.43;;;2.75;;
36457;SDS011;22480;50.546;12.292;2023-05-29T14:32:59;5.68;;;2.88;;
36457;SDS011;22480;50.546;12.292;2023-05-29T14:35:25;4.50;;;2.88;;
36457;SDS011;22480;50.546;12.292;2023-05-29T14:37:51;4.22;;;2.63;;
36457;SDS011;22480;50.546;12.292;2023-05-29T14:40:17;5.38;;;2.85;;
36457;SDS011;22480;50.546;12.292;2023-05-29T14:42:42;4.72;;;2.40;;
36457;SDS011;22480;50.546;12.292;2023-05-29T14:45:08;4.75;;;2.42;;
36457;SDS011;22480;50.546;12.292;2023-05-29T14:47:37;4.25;;;2.70;;
36457;SDS011;22480;50.546;12.292;2023-05-29T14:50:03;5.00;;;2.58;;
36457;SDS011;22480;50.546;12.292;2023-05-29T14:52:29;3.63;;;2.55;;
36457;SDS011;22480;50.546;12.292;2023-05-29T14:54:55;3.45;;;2.38;;
36457;SDS011;22480;50.546;12.292;2023-05-29T14:57:20;3.88;;;2.65;;
36457;SDS011;22480;50.546;12.292;2023-05-29T14:59:46;7.00;;;2.75;;
36457;SDS011;22480;50.546;12.292;2023-05-29T15:02:13;3.40;;;2.55;;
36457;SDS011;22480;50.546;12.292;2023-05-29T15:04:38;7.00;;;2.90;;
36457;SDS011;22480;50.546;12.292;2023-05-29T15:07:04;6.57;;;2.47;;